sensor_id;sensor_type;location;lat;lon;timestamp;pressure;altitude;pressure_sealevel;temperature;humidity
64253;BME280;50592;52.958;-7.470;2024-01-15T00:01:32;100557.75;;;1.49;100.00
64253;BME280;50592;52.958;-7.470;2024-01-15T00:03:59;100557.59;;;1.52;100.00
64253;BME280;50592;52.958;-7.470;2024-01-15T00:06:25;100549.84;;;1.51;100.00
64253;BME280;50592;52.958;-7.470;2024-01-15T00:08:52;100549.00;;;1.50;100.00
64253;BME280;50592;52.958;-7.470;2024-01-15T00:11:18;100539.75;;;1.44;100.00
64253;BME280;50592;52.958;-7.470;2024-01-15T00:13:57;100531.94;;;1.44;100.00
64253;BME280;50592;52.958;-7.470;2024-01-15T00:16:23;100541.09;;;1.35;100.00
64253;BME280;50592;52.958;-7.470;2024-01-15T00:18:49;100551.50;;;1.35;100.00
64253;BME280;50592;52.958;-7.470;2024-01-15T00:21:17;100539.25;;;1.38;100.00
64253;BME280;50592;52.958;-7.470;2024-01-15T00:23:45;100545.13;;;1.41;100.00
64253;BME280;50592;52.958;-7.470;2024-01-15T00:26:12;100544.28;;;1.41;100.00
64253;BME280;50592;52.958;-7.470;2024-01-15T00:28:38;100535.63;;;1.40;100.00
64253;BME280;50592;52.958;-7.470;2024-01-15T00:31:05;100529.69;;;1.38;100.00
64253;BME280;50592;52.958;-7.470;2024-01-15T00:33:32;100515.44;;;1.28;100.00
64253;BME280;50592;52.958;-7.470;2024-01-15T00:36:01;100518.91;;;1.28;100.00
64253;BME280;50592;52.958;-7.470;2024-01-15T00:38:30;100517.88;;;1.31;100.00
64253;BME280;50592;52.958;-7.470;2024-01-15T00:41:22;100506.50;;;1.33;100.00
64253;BME280;50592;52.958;-7.470;2024-01-15T00:43:49;100512.28;;;1.22;100.00
64253;BME280;50592;52.958;-7.470;2024-01-15T00:46:15;100510.50;;;1.23;100.00
64253;BME280;50592;52.958;-7.470;2024-01-15T00:48:43;100509.75;;;1.21;100.00
64253;BME280;50592;52.958;-7.470;2024-01-15T00:51:09;100514.19;;;1.19;100.00
64253;BME280;50592;52.958;-7.470;2024-01-15T00:53:36;100502.50;;;1.10;100.00
64253;BME280;50592;52.958;-7.470;2024-01-15T00:56:03;100508.09;;;1.02;100.00
64253;BME280;50592;52.958;-7.470;2024-01-15T00:58:29;100497.94;;;0.97;100.00
64253;BME280;50592;52.958;-7.470;2024-01-15T01:00:59;100498.50;;;0.86;100.00
64253;BME280;50592;52.958;-7.470;2024-01-15T01:03:25;100506.22;;;0.88;100.00
64253;BME280;50592;52.958;-7.470;2024-01-15T01:05:51;100503.09;;;0.81;100.00
64253;BME280;50592;52.958;-7.470;2024-01-15T01:08:17;100494.72;;;0.76;100.00
64253;BME280;50592;52.958;-7.470;2024-01-15T01:10:43;100495.38;;;0.80;100.00
64253;BME280;50592;52.958;-7.470;2024-01-15T01:13:09;100501.41;;;0.80;100.00
64253;BME280;50592;52.958;-7.470;2024-01-15T01:15:35;100502.34;;;0.79;100.00
64253;BME280;50592;52.958;-7.470;2024-01-15T01:18:01;100489.75;;;0.71;100.00
64253;BME280;50592;52.958;-7.470;2024-01-15T01:20:27;100494.00;;;0.72;100.00
64253;BME280;50592;52.958;-7.470;2024-01-15T01:22:52;100487.97;;;0.72;100.00
64253;BME280;50592;52.958;-7.470;2024-01-15T01:25:18;100481.69;;;0.76;100.00
64253;BME280;50592;52.958;-7.470;2024-01-15T01:27:45;100474.78;;;0.75;100.00
64253;BME280;50592;52.958;-7.470;2024-01-15T01:30:11;100481.53;;;0.79;100.00
64253;BME280;50592;52.958;-7.470;2024-01-15T01:32:43;100488.09;;;0.86;100.00
64253;BME280;50592;52.958;-7.470;2024-01-15T01:35:09;100481.91;;;0.89;100.00
64253;BME280;50592;52.958;-7.470;2024-01-15T01:37:34;100469.06;;;0.86;100.00
64253;BME280;50592;52.958;-7.470;2024-01-15T01:40:07;100476.00;;;0.85;100.00
64253;BME280;50592;52.958;-7.470;2024-01-15T01:42:38;100467.44;;;0.83;100.00
64253;BME280;50592;52.958;-7.470;2024-01-15T01:45:05;100482.16;;;0.84;100.00
64253;BME280;50592;52.958;-7.470;2024-01-15T01:47:31;100484.13;;;0.79;100.00
64253;BME280;50592;52.958;-7.470;2024-01-15T01:49:57;100476.50;;;0.76;100.00
64253;BME280;50592;52.958;-7.470;2024-01-15T01:52:24;100479.00;;;0.78;100.00
64253;BME280;50592;52.958;-7.470;2024-01-15T01:54:50;100472.97;;;0.77;100.00
64253;BME280;50592;52.958;-7.470;2024-01-15T01:57:18;100466.09;;;0.76;100.00
64253;BME280;50592;52.958;-7.470;2024-01-15T01:59:53;100462.47;;;0.79;100.00
64253;BME280;50592;52.958;-7.470;2024-01-15T02:02:20;100464.47;;;0.73;100.00
64253;BME280;50592;52.958;-7.470;2024-01-15T02:04:47;100465.94;;;0.79;100.00
64253;BME280;50592;52.958;-7.470;2024-01-15T02:07:14;100457.34;;;0.77;100.00
64253;BME280;50592;52.958;-7.470;2024-01-15T02:09:48;100458.28;;;0.76;100.00
64253;BME280;50592;52.958;-7.470;2024-01-15T02:12:16;100455.50;;;0.79;100.00
64253;BME280;50592;52.958;-7.470;2024-01-15T02:14:42;100452.91;;;0.79;100.00
64253;BME280;50592;52.958;-7.470;2024-01-15T02:17:07;100452.16;;;0.77;100.00
64253;BME280;50592;52.958;-7.470;2024-01-15T02:19:33;100461.63;;;0.78;100.00
64253;BME280;50592;52.958;-7.470;2024-01-15T02:21:59;100453.97;;;0.75;100.00
64253;BME280;50592;52.958;-7.470;2024-01-15T02:24:25;100458.28;;;0.76;100.00
64253;BME280;50592;52.958;-7.470;2024-01-15T02:26:51;100447.19;;;0.72;100.00
64253;BME280;50592;52.958;-7.470;2024-01-15T02:29:17;100451.47;;;0.73;100.00
64253;BME280;50592;52.958;-7.470;2024-01-15T02:31:43;100446.41;;;0.70;100.00
64253;BME280;50592;52.958;-7.470;2024-01-15T02:34:09;100459.19;;;0.75;100.00
64253;BME280;50592;52.958;-7.470;2024-01-15T02:36:38;100453.16;;;0.74;100.00
64253;BME280;50592;52.958;-7.470;2024-01-15T02:39:07;100460.28;;;0.71;100.00
64253;BME280;50592;52.958;-7.470;2024-01-15T02:41:34;100454.91;;;0.74;100.00
64253;BME280;50592;52.958;-7.470;2024-01-15T02:44:00;100450.03;;;0.68;100.00
64253;BME280;50592;52.958;-7.470;2024-01-15T02:46:25;100445.91;;;0.64;100.00
64253;BME280;50592;52.958;-7.470;2024-01-15T02:48:52;100461.19;;;0.70;100.00
64253;BME280;50592;52.958;-7.470;2024-01-15T02:51:26;100446.75;;;0.64;100.00
64253;BME280;50592;52.958;-7.470;2024-01-15T02:53:53;100448.00;;;0.57;100.00
64253;BME280;50592;52.958;-7.470;2024-01-15T02:56:18;100453.50;;;0.51;100.00
64253;BME280;50592;52.958;-7.470;2024-01-15T02:58:44;100454.56;;;0.46;100.00
64253;BME280;50592;52.958;-7.470;2024-01-15T03:01:10;100461.38;;;0.49;100.00
64253;BME280;50592;52.958;-7.470;2024-01-15T03:03:36;100460.53;;;0.48;100.00
64253;BME280;50592;52.958;-7.470;2024-01-15T03:06:02;100454.97;;;0.39;100.00
64253;BME280;50592;52.958;-7.470;2024-01-15T03:08:28;100459.94;;;0.43;100.00
64253;BME280;50592;52.958;-7.470;2024-01-15T03:10:54;100460.94;;;0.41;100.00
64253;BME280;50592;52.958;-7.470;2024-01-15T03:13:20;100459.09;;;0.43;100.00
64253;BME280;50592;52.958;-7.470;2024-01-15T03:15:46;100470.47;;;0.40;100.00
64253;BME280;50592;52.958;-7.470;2024-01-15T03:18:12;100457.56;;;0.39;100.00
64253;BME280;50592;52.958;-7.470;2024-01-15T03:20:37;100460.41;;;0.34;100.00
64253;BME280;50592;52.958;-7.470;2024-01-15T03:23:03;100461.41;;;0.31;100.00
64253;BME280;50592;52.958;-7.470;2024-01-15T03:25:29;100457.06;;;0.32;100.00
64253;BME280;50592;52.958;-7.470;2024-01-15T03:27:55;100443.28;;;0.30;100.00
64253;BME280;50592;52.958;-7.470;2024-01-15T03:30:21;100449.09;;;0.35;100.00
64253;BME280;50592;52.958;-7.470;2024-01-15T03:32:46;100449.84;;;0.37;100.00
64253;BME280;50592;52.958;-7.470;2024-01-15T03:35:13;100451.53;;;0.38;100.00
64253;BME280;50592;52.958;-7.470;2024-01-15T03:37:38;100450.75;;;0.36;100.00
64253;BME280;50592;52.958;-7.470;2024-01-15T03:40:05;100446.50;;;0.35;100.00
64253;BME280;50592;52.958;-7.470;2024-01-15T03:42:31;100443.97;;;0.33;100.00
64253;BME280;50592;52.958;-7.470;2024-01-15T03:44:57;100449.03;;;0.36;100.00
64253;BME280;50592;52.958;-7.470;2024-01-15T03:47:23;100437.06;;;0.32;100.00
64253;BME280;50592;52.958;-7.470;2024-01-15T03:49:48;100436.03;;;0.36;100.00
64253;BME280;50592;52.958;-7.470;2024-01-15T03:52:17;100432.50;;;0.38;100.00
64253;BME280;50592;52.958;-7.470;2024-01-15T03:54:43;100426.50;;;0.35;100.00
64253;BME280;50592;52.958;-7.470;2024-01-15T03:57:09;100427.69;;;0.30;100.00
64253;BME280;50592;52.958;-7.470;2024-01-15T03:59:35;100436.19;;;0.33;100.00
64253;BME280;50592;52.958;-7.470;2024-01-15T04:02:00;100432.03;;;0.29;100.00
64253;BME280;50592;52.958;-7.470;2024-01-15T04:04:26;100431.06;;;0.32;100.00
64253;BME280;50592;52.958;-7.470;2024-01-15T04:06:52;100438.09;;;0.30;100.00
64253;BME280;50592;52.958;-7.470;2024-01-15T04:09:18;100435.47;;;0.30;100.00
64253;BME280;50592;52.958;-7.470;2024-01-15T04:11:44;100428.59;;;0.29;100.00
64253;BME280;50592;52.958;-7.470;2024-01-15T04:14:14;100437.16;;;0.31;100.00
64253;BME280;50592;52.958;-7.470;2024-01-15T04:16:40;100433.66;;;0.32;100.00
64253;BME280;50592;52.958;-7.470;2024-01-15T04:19:07;100433.81;;;0.29;100.00
64253;BME280;50592;52.958;-7.470;2024-01-15T04:21:32;100418.25;;;0.27;100.00
64253;BME280;50592;52.958;-7.470;2024-01-15T04:23:58;100428.59;;;0.29;100.00
64253;BME280;50592;52.958;-7.470;2024-01-15T04:26:24;100417.44;;;0.27;100.00
64253;BME280;50592;52.958;-7.470;2024-01-15T04:28:53;100432.03;;;0.29;100.00
64253;BME280;50592;52.958;-7.470;2024-01-15T04:31:24;100425.78;;;0.33;100.00
64253;BME280;50592;52.958;-7.470;2024-01-15T04:33:50;100432.97;;;0.28;100.00
64253;BME280;50592;52.958;-7.470;2024-01-15T04:36:16;100436.41;;;0.29;100.00
64253;BME280;50592;52.958;-7.470;2024-01-15T04:38:42;100424.53;;;0.23;100.00
64253;BME280;50592;52.958;-7.470;2024-01-15T04:41:16;100443.19;;;0.31;100.00
64253;BME280;50592;52.958;-7.470;2024-01-15T04:43:42;100434.00;;;0.24;100.00
64253;BME280;50592;52.958;-7.470;2024-01-15T04:46:08;100436.63;;;0.24;100.00
64253;BME280;50592;52.958;-7.470;2024-01-15T04:48:34;100433.44;;;0.19;100.00
64253;BME280;50592;52.958;-7.470;2024-01-15T04:51:00;100440.22;;;0.21;100.00
64253;BME280;50592;52.958;-7.470;2024-01-15T04:53:26;100432.66;;;0.17;100.00
64253;BME280;50592;52.958;-7.470;2024-01-15T04:55:52;100430.06;;;0.17;100.00
64253;BME280;50592;52.958;-7.470;2024-01-15T04:58:17;100436.03;;;0.19;100.00
64253;BME280;50592;52.958;-7.470;2024-01-15T05:00:43;100439.44;;;0.19;100.00
64253;BME280;50592;52.958;-7.470;2024-01-15T05:03:09;100440.28;;;0.20;100.00
64253;BME280;50592;52.958;-7.470;2024-01-15T05:05:35;100442.91;;;0.20;100.00
64253;BME280;50592;52.958;-7.470;2024-01-15T05:08:01;100417.13;;;0.15;100.00
64253;BME280;50592;52.958;-7.470;2024-01-15T05:10:27;100437.00;;;0.16;100.00
64253;BME280;50592;52.958;-7.470;2024-01-15T05:12:53;100433.91;;;0.09;100.00
64253;BME280;50592;52.958;-7.470;2024-01-15T05:15:22;100435.50;;;0.12;100.00
64253;BME280;50592;52.958;-7.470;2024-01-15T05:17:48;100428.63;;;0.11;100.00
64253;BME280;50592;52.958;-7.470;2024-01-15T05:20:14;100436.25;;;0.14;100.00
64253;BME280;50592;52.958;-7.470;2024-01-15T05:22:40;100439.84;;;0.11;100.00
64253;BME280;50592;52.958;-7.470;2024-01-15T05:25:06;100431.53;;;0.05;100.00
64253;BME280;50592;52.958;-7.470;2024-01-15T05:27:32;100439.84;;;0.11;100.00
64253;BME280;50592;52.958;-7.470;2024-01-15T05:29:58;100441.63;;;0.11;100.00
64253;BME280;50592;52.958;-7.470;2024-01-15T05:32:24;100445.81;;;0.14;100.00
64253;BME280;50592;52.958;-7.470;2024-01-15T05:34:50;100433.75;;;0.13;100.00
64253;BME280;50592;52.958;-7.470;2024-01-15T05:37:16;100455.97;;;0.18;100.00
64253;BME280;50592;52.958;-7.470;2024-01-15T05:39:42;100433.59;;;0.16;100.00
64253;BME280;50592;52.958;-7.470;2024-01-15T05:42:09;100442.91;;;0.20;100.00
64253;BME280;50592;52.958;-7.470;2024-01-15T05:44:35;100436.84;;;0.19;100.00
64253;BME280;50592;52.958;-7.470;2024-01-15T05:47:00;100445.34;;;0.23;100.00
64253;BME280;50592;52.958;-7.470;2024-01-15T05:49:26;100439.38;;;0.21;100.00
64253;BME280;50592;52.958;-7.470;2024-01-15T05:51:55;100447.00;;;0.24;100.00
64253;BME280;50592;52.958;-7.470;2024-01-15T05:54:27;100452.53;;;0.18;100.00
64253;BME280;50592;52.958;-7.470;2024-01-15T05:56:52;100440.59;;;0.14;100.00
64253;BME280;50592;52.958;-7.470;2024-01-15T05:59:18;100445.56;;;0.18;100.00
64253;BME280;50592;52.958;-7.470;2024-01-15T06:01:44;100451.69;;;0.17;100.00
64253;BME280;50592;52.958;-7.470;2024-01-15T06:04:10;100459.50;;;0.17;100.00
64253;BME280;50592;52.958;-7.470;2024-01-15T06:06:36;100441.63;;;0.11;100.00
64253;BME280;50592;52.958;-7.470;2024-01-15T06:09:05;100456.97;;;0.16;100.00
64253;BME280;50592;52.958;-7.470;2024-01-15T06:11:32;100449.03;;;0.19;100.00
64253;BME280;50592;52.958;-7.470;2024-01-15T06:13:58;100448.09;;;0.20;100.00
64253;BME280;50592;52.958;-7.470;2024-01-15T06:16:28;100458.25;;;0.24;100.00
64253;BME280;50592;52.958;-7.470;2024-01-15T06:18:54;100449.25;;;0.14;100.00
64253;BME280;50592;52.958;-7.470;2024-01-15T06:21:20;100449.09;;;0.17;100.00
64253;BME280;50592;52.958;-7.470;2024-01-15T06:23:46;100450.53;;;0.23;100.00
64253;BME280;50592;52.958;-7.470;2024-01-15T06:26:12;100446.28;;;0.22;100.00
64253;BME280;50592;52.958;-7.470;2024-01-15T06:28:44;100441.97;;;0.21;100.00
64253;BME280;50592;52.958;-7.470;2024-01-15T06:31:10;100466.75;;;0.28;100.00
64253;BME280;50592;52.958;-7.470;2024-01-15T06:33:36;100462.41;;;0.29;100.00
64253;BME280;50592;52.958;-7.470;2024-01-15T06:36:02;100465.91;;;0.28;100.00
64253;BME280;50592;52.958;-7.470;2024-01-15T06:38:28;100473.56;;;0.31;100.00
64253;BME280;50592;52.958;-7.470;2024-01-15T06:40:54;100463.16;;;0.31;100.00
64253;BME280;50592;52.958;-7.470;2024-01-15T06:43:20;100458.72;;;0.33;100.00
64253;BME280;50592;52.958;-7.470;2024-01-15T06:45:46;100458.09;;;0.28;100.00
64253;BME280;50592;52.958;-7.470;2024-01-15T06:48:12;100463.94;;;0.33;100.00
64253;BME280;50592;52.958;-7.470;2024-01-15T06:50:42;100462.34;;;0.30;100.00
64253;BME280;50592;52.958;-7.470;2024-01-15T06:53:08;100465.06;;;0.27;100.00
64253;BME280;50592;52.958;-7.470;2024-01-15T06:55:34;100473.63;;;0.29;100.00
64253;BME280;50592;52.958;-7.470;2024-01-15T06:58:00;100465.06;;;0.27;100.00
64253;BME280;50592;52.958;-7.470;2024-01-15T07:00:26;100463.47;;;0.24;100.00
64253;BME280;50592;52.958;-7.470;2024-01-15T07:02:53;100457.66;;;0.19;100.00
64253;BME280;50592;52.958;-7.470;2024-01-15T07:05:20;100458.72;;;0.15;100.00
64253;BME280;50592;52.958;-7.470;2024-01-15T07:07:46;100450.53;;;0.05;100.00
64253;BME280;50592;52.958;-7.470;2024-01-15T07:10:13;100463.38;;;0.08;100.00
64253;BME280;50592;52.958;-7.470;2024-01-15T07:12:42;100465.66;;;0.15;100.00
64253;BME280;50592;52.958;-7.470;2024-01-15T07:15:08;100466.59;;;0.14;100.00
64253;BME280;50592;52.958;-7.470;2024-01-15T07:17:34;100476.06;;;0.15;100.00
64253;BME280;50592;52.958;-7.470;2024-01-15T07:20:00;100475.16;;;0.16;100.00
64253;BME280;50592;52.958;-7.470;2024-01-15T07:22:27;100469.34;;;0.10;100.00
64253;BME280;50592;52.958;-7.470;2024-01-15T07:24:52;100476.22;;;0.11;100.00
64253;BME280;50592;52.958;-7.470;2024-01-15T07:27:19;100469.34;;;0.10;100.00
64253;BME280;50592;52.958;-7.470;2024-01-15T07:29:45;100471.19;;;0.08;100.00
64253;BME280;50592;52.958;-7.470;2024-01-15T07:32:11;100486.78;;;0.08;100.00
64253;BME280;50592;52.958;-7.470;2024-01-15T07:34:37;100479.19;;;0.04;100.00
64253;BME280;50592;52.958;-7.470;2024-01-15T07:37:03;100492.13;;;0.05;100.00
64253;BME280;50592;52.958;-7.470;2024-01-15T07:39:29;100502.38;;;0.08;100.00
64253;BME280;50592;52.958;-7.470;2024-01-15T07:41:56;100509.03;;;0.14;100.00
64253;BME280;50592;52.958;-7.470;2024-01-15T07:44:22;100488.56;;;0.08;100.00
64253;BME280;50592;52.958;-7.470;2024-01-15T07:46:48;100504.66;;;0.15;100.00
64253;BME280;50592;52.958;-7.470;2024-01-15T07:49:14;100505.66;;;0.12;100.00
64253;BME280;50592;52.958;-7.470;2024-01-15T07:51:40;100497.25;;;0.07;100.00
64253;BME280;50592;52.958;-7.470;2024-01-15T07:54:06;100495.03;;;-0.01;100.00
64253;BME280;50592;52.958;-7.470;2024-01-15T07:56:33;100493.50;;;-0.05;100.00
64253;BME280;50592;52.958;-7.470;2024-01-15T07:58:59;100494.47;;;-0.08;100.00
64253;BME280;50592;52.958;-7.470;2024-01-15T08:01:25;100504.88;;;-0.08;100.00
64253;BME280;50592;52.958;-7.470;2024-01-15T08:03:51;100511.84;;;-0.08;100.00
64253;BME280;50592;52.958;-7.470;2024-01-15T08:06:17;100506.16;;;-0.17;100.00
64253;BME280;50592;52.958;-7.470;2024-01-15T08:08:43;100504.94;;;-0.09;100.00
64253;BME280;50592;52.958;-7.470;2024-01-15T08:11:09;100504.34;;;-0.15;100.00
64253;BME280;50592;52.958;-7.470;2024-01-15T08:13:35;100498.59;;;-0.21;100.00
64253;BME280;50592;52.958;-7.470;2024-01-15T08:16:02;100490.59;;;-0.36;100.00
64253;BME280;50592;52.958;-7.470;2024-01-15T08:18:28;100496.09;;;-0.42;100.00
64253;BME280;50592;52.958;-7.470;2024-01-15T08:20:54;100495.38;;;-0.46;100.00
64253;BME280;50592;52.958;-7.470;2024-01-15T08:23:20;100490.47;;;-0.52;100.00
64253;BME280;50592;52.958;-7.470;2024-01-15T08:25:46;100515.25;;;-0.45;100.00
64253;BME280;50592;52.958;-7.470;2024-01-15T08:28:12;100517.63;;;-0.40;100.00
64253;BME280;50592;52.958;-7.470;2024-01-15T08:30:38;100515.72;;;-0.36;100.00
64253;BME280;50592;52.958;-7.470;2024-01-15T08:33:04;100512.09;;;-0.32;100.00
64253;BME280;50592;52.958;-7.470;2024-01-15T08:35:30;100510.59;;;-0.38;100.00
64253;BME280;50592;52.958;-7.470;2024-01-15T08:37:56;100501.41;;;-0.45;100.00
64253;BME280;50592;52.958;-7.470;2024-01-15T08:40:24;100499.63;;;-0.63;100.00
64253;BME280;50592;52.958;-7.470;2024-01-15T08:42:52;100496.53;;;-0.71;100.00
64253;BME280;50592;52.958;-7.470;2024-01-15T08:45:18;100517.34;;;-0.72;100.00
64253;BME280;50592;52.958;-7.470;2024-01-15T08:47:44;100521.28;;;-0.64;100.00
64253;BME280;50592;52.958;-7.470;2024-01-15T08:50:10;100523.56;;;-0.56;100.00
64253;BME280;50592;52.958;-7.470;2024-01-15T08:52:36;100536.94;;;-0.46;100.00
64253;BME280;50592;52.958;-7.470;2024-01-15T08:55:03;100529.00;;;-0.43;100.00
64253;BME280;50592;52.958;-7.470;2024-01-15T08:57:30;100522.06;;;-0.42;100.00
64253;BME280;50592;52.958;-7.470;2024-01-15T08:59:55;100526.53;;;-0.46;100.00
64253;BME280;50592;52.958;-7.470;2024-01-15T09:02:21;100514.13;;;-0.58;100.00
64253;BME280;50592;52.958;-7.470;2024-01-15T09:04:47;100514.56;;;-0.68;100.00
64253;BME280;50592;52.958;-7.470;2024-01-15T09:07:13;100524.22;;;-0.71;100.00
64253;BME280;50592;52.958;-7.470;2024-01-15T09:09:39;100534.31;;;-0.65;100.00
64253;BME280;50592;52.958;-7.470;2024-01-15T09:12:05;100541.75;;;-0.57;100.00
64253;BME280;50592;52.958;-7.470;2024-01-15T09:14:31;100531.19;;;-0.53;100.00
64253;BME280;50592;52.958;-7.470;2024-01-15T09:16:57;100544.38;;;-0.38;100.00
64253;BME280;50592;52.958;-7.470;2024-01-15T09:19:23;100534.41;;;-0.28;100.00
64253;BME280;50592;52.958;-7.470;2024-01-15T09:21:48;100531.72;;;-0.27;100.00
64253;BME280;50592;52.958;-7.470;2024-01-15T09:24:14;100529.34;;;-0.31;100.00
64253;BME280;50592;52.958;-7.470;2024-01-15T09:26:40;100527.97;;;-0.39;100.00
64253;BME280;50592;52.958;-7.470;2024-01-15T09:29:06;100531.44;;;-0.40;100.00
64253;BME280;50592;52.958;-7.470;2024-01-15T09:31:31;100533.22;;;-0.40;100.00
64253;BME280;50592;52.958;-7.470;2024-01-15T09:33:57;100551.69;;;-0.27;100.00
64253;BME280;50592;52.958;-7.470;2024-01-15T09:36:25;100552.94;;;-0.17;100.00
64253;BME280;50592;52.958;-7.470;2024-01-15T09:38:52;100553.41;;;-0.08;100.00
64253;BME280;50592;52.958;-7.470;2024-01-15T09:41:18;100553.91;;;0.00;100.00
64253;BME280;50592;52.958;-7.470;2024-01-15T09:43:44;100546.78;;;0.04;100.00
64253;BME280;50592;52.958;-7.470;2024-01-15T09:46:11;100542.66;;;-0.01;100.00
64253;BME280;50592;52.958;-7.470;2024-01-15T09:48:37;100543.75;;;-0.06;100.00
64253;BME280;50592;52.958;-7.470;2024-01-15T09:51:05;100542.94;;;-0.07;100.00
64253;BME280;50592;52.958;-7.470;2024-01-15T09:53:33;100548.97;;;-0.06;100.00
64253;BME280;50592;52.958;-7.470;2024-01-15T09:55:59;100544.47;;;-0.03;100.00
64253;BME280;50592;52.958;-7.470;2024-01-15T09:58:25;100557.72;;;0.10;100.00
64253;BME280;50592;52.958;-7.470;2024-01-15T10:00:51;100562.41;;;0.21;100.00
64253;BME280;50592;52.958;-7.470;2024-01-15T10:03:18;100552.47;;;0.30;100.00
64253;BME280;50592;52.958;-7.470;2024-01-15T10:05:44;100541.84;;;0.34;100.00
64253;BME280;50592;52.958;-7.470;2024-01-15T10:08:10;100539.66;;;0.44;100.00
64253;BME280;50592;52.958;-7.470;2024-01-15T10:10:37;100536.03;;;0.47;100.00
64253;BME280;50592;52.958;-7.470;2024-01-15T10:13:03;100547.53;;;0.60;100.00
64253;BME280;50592;52.958;-7.470;2024-01-15T10:15:30;100561.75;;;0.71;100.00
64253;BME280;50592;52.958;-7.470;2024-01-15T10:17:59;100558.50;;;0.83;100.00
64253;BME280;50592;52.958;-7.470;2024-01-15T10:20:25;100564.78;;;0.97;100.00
64253;BME280;50592;52.958;-7.470;2024-01-15T10:22:50;100557.03;;;1.13;100.00
64253;BME280;50592;52.958;-7.470;2024-01-15T10:25:16;100553.94;;;1.22;100.00
64253;BME280;50592;52.958;-7.470;2024-01-15T10:27:59;100539.50;;;1.33;100.00
64253;BME280;50592;52.958;-7.470;2024-01-15T10:30:25;100538.06;;;1.27;100.00
64253;BME280;50592;52.958;-7.470;2024-01-15T10:32:58;100537.91;;;1.30;100.00
64253;BME280;50592;52.958;-7.470;2024-01-15T10:35:32;100541.25;;;1.32;100.00
64253;BME280;50592;52.958;-7.470;2024-01-15T10:38:02;100541.41;;;1.29;100.00
64253;BME280;50592;52.958;-7.470;2024-01-15T10:40:28;100544.78;;;1.31;100.00
64253;BME280;50592;52.958;-7.470;2024-01-15T10:42:54;100542.00;;;1.34;100.00
64253;BME280;50592;52.958;-7.470;2024-01-15T10:45:20;100547.81;;;1.40;100.00
64253;BME280;50592;52.958;-7.470;2024-01-15T10:47:46;100543.38;;;1.42;100.00
64253;BME280;50592;52.958;-7.470;2024-01-15T10:50:12;100536.22;;;1.45;100.00
64253;BME280;50592;52.958;-7.470;2024-01-15T10:52:39;100541.25;;;1.48;100.00
64253;BME280;50592;52.958;-7.470;2024-01-15T10:55:09;100549.94;;;1.49;100.00
64253;BME280;50592;52.958;-7.470;2024-01-15T10:57:37;100555.75;;;1.54;100.00
64253;BME280;50592;52.958;-7.470;2024-01-15T11:00:04;100562.47;;;1.58;100.00
64253;BME280;50592;52.958;-7.470;2024-01-15T11:02:32;100567.34;;;1.65;100.00
64253;BME280;50592;52.958;-7.470;2024-01-15T11:05:00;100568.88;;;1.69;100.00
64253;BME280;50592;52.958;-7.470;2024-01-15T11:07:26;100574.56;;;1.76;100.00
64253;BME280;50592;52.958;-7.470;2024-01-15T11:09:52;100561.28;;;1.80;100.00
64253;BME280;50592;52.958;-7.470;2024-01-15T11:12:18;100558.03;;;1.77;100.00
64253;BME280;50592;52.958;-7.470;2024-01-15T11:14:49;100558.69;;;1.80;100.00
64253;BME280;50592;52.958;-7.470;2024-01-15T11:17:16;100562.81;;;1.84;100.00
64253;BME280;50592;52.958;-7.470;2024-01-15T11:19:47;100563.28;;;1.91;100.00
64253;BME280;50592;52.958;-7.470;2024-01-15T11:25:02;100560.19;;;2.01;100.00
64253;BME280;50592;52.958;-7.470;2024-01-15T11:27:48;100555.28;;;2.10;100.00
64253;BME280;50592;52.958;-7.470;2024-01-15T11:30:17;100547.47;;;2.10;100.00
64253;BME280;50592;52.958;-7.470;2024-01-15T11:32:43;100543.94;;;2.12;100.00
64253;BME280;50592;52.958;-7.470;2024-01-15T11:35:10;100543.84;;;2.13;100.00
64253;BME280;50592;52.958;-7.470;2024-01-15T11:40:19;100564.38;;;2.19;100.00
64253;BME280;50592;52.958;-7.470;2024-01-15T11:42:46;100563.94;;;2.27;100.00
64253;BME280;50592;52.958;-7.470;2024-01-15T11:45:18;100566.94;;;2.35;100.00
64253;BME280;50592;52.958;-7.470;2024-01-15T11:50:43;100549.16;;;2.42;100.00
64253;BME280;50592;52.958;-7.470;2024-01-15T11:53:36;100554.78;;;2.51;100.00
64253;BME280;50592;52.958;-7.470;2024-01-15T11:56:03;100552.25;;;2.49;100.00
64253;BME280;50592;52.958;-7.470;2024-01-15T11:58:32;100559.16;;;2.50;100.00
64253;BME280;50592;52.958;-7.470;2024-01-15T12:00:58;100558.16;;;2.53;100.00
64253;BME280;50592;52.958;-7.470;2024-01-15T12:03:24;100564.22;;;2.53;100.00
64253;BME280;50592;52.958;-7.470;2024-01-15T12:05:52;100559.53;;;2.58;100.00
64253;BME280;50592;52.958;-7.470;2024-01-15T12:08:24;100560.88;;;2.66;100.00
64253;BME280;50592;52.958;-7.470;2024-01-15T12:10:51;100552.47;;;2.60;100.00
64253;BME280;50592;52.958;-7.470;2024-01-15T12:13:17;100552.97;;;2.67;100.00
64253;BME280;50592;52.958;-7.470;2024-01-15T12:15:44;100545.22;;;2.66;100.00
64253;BME280;50592;52.958;-7.470;2024-01-15T12:18:16;100552.50;;;2.75;100.00
64253;BME280;50592;52.958;-7.470;2024-01-15T12:20:43;100552.25;;;2.80;100.00
64253;BME280;50592;52.958;-7.470;2024-01-15T12:23:09;100558.66;;;2.89;100.00
64253;BME280;50592;52.958;-7.470;2024-01-15T12:25:36;100548.13;;;2.90;100.00
64253;BME280;50592;52.958;-7.470;2024-01-15T12:28:03;100547.03;;;2.94;100.00
64253;BME280;50592;52.958;-7.470;2024-01-15T12:30:30;100534.53;;;3.00;100.00
64253;BME280;50592;52.958;-7.470;2024-01-15T12:33:06;100536.59;;;3.09;100.00
64253;BME280;50592;52.958;-7.470;2024-01-15T12:35:34;100541.88;;;3.07;100.00
64253;BME280;50592;52.958;-7.470;2024-01-15T12:38:01;100540.78;;;3.12;100.00
64253;BME280;50592;52.958;-7.470;2024-01-15T12:40:31;100533.91;;;3.10;100.00
64253;BME280;50592;52.958;-7.470;2024-01-15T12:42:58;100536.03;;;3.18;100.00
64253;BME280;50592;52.958;-7.470;2024-01-15T12:45:24;100529.78;;;3.21;100.00